Time;durP1;ratioP1;P1;durP2;ratioP2;P2;SDS_P1;SDS_P2;PMS_P1;PMS_P2;Temp;Humidity;BMP_temperature;BMP_pressure;BME280_temperature;BME280_humidity;BME280_pressure;Samples;Min_cycle;Max_cycle;Signal;HPM_P1;HPM_P2
2022/08/16 00:03:20;;;;;;;3.40;2.20;;;13.00;99.90;;;;;;8369417;28;20025;-80
2022/08/16 00:07:20;;;;;;;2.80;2.20;;;13.10;99.90;;;;;;8379045;28;20029;-80
2022/08/16 00:11:21;;;;;;;7.22;2.00;;;12.80;99.90;;;;;;8363308;28;20055;-81
2022/08/16 00:15:35;;;;;;;3.90;2.30;;;12.70;99.90;;;;;;8364058;28;20025;-81
2022/08/16 00:19:35;;;;;;;2.60;1.80;;;12.80;99.90;;;;;;8365198;28;20025;-80
2022/08/16 00:23:36;;;;;;;2.17;1.98;;;12.90;99.90;;;;;;8364877;28;20021;-82
2022/08/16 00:27:37;;;;;;;2.72;2.30;;;13.00;99.90;;;;;;8365624;28;20051;-80
2022/08/16 00:31:38;;;;;;;2.15;1.80;;;13.10;99.90;;;;;;8363822;28;20039;-81
2022/08/16 00:35:38;;;;;;;4.57;2.20;;;13.30;99.90;;;;;;8362997;28;20032;-80
2022/08/16 00:39:39;;;;;;;3.05;2.42;;;13.20;99.90;;;;;;8363217;28;20013;-78
2022/08/16 00:43:39;;;;;;;3.35;2.47;;;13.10;99.90;;;;;;8363678;28;20155;-80
2022/08/16 00:47:43;;;;;;;2.80;2.38;;;13.00;99.90;;;;;;8363437;28;20608;-81
2022/08/16 00:51:46;;;;;;;4.97;2.42;;;12.90;99.90;;;;;;8364487;28;20440;-81
2022/08/16 00:55:50;;;;;;;4.22;2.53;;;12.70;99.90;;;;;;8362754;28;20029;-81
2022/08/16 00:59:51;;;;;;;3.25;2.65;;;12.60;99.90;;;;;;8363345;28;20401;-80
2022/08/16 01:03:53;;;;;;;3.10;2.65;;;12.60;99.90;;;;;;8364322;28;20017;-80
2022/08/16 01:07:56;;;;;;;3.00;2.50;;;12.80;99.90;;;;;;8364114;28;20028;-80
2022/08/16 01:11:56;;;;;;;3.33;2.53;;;12.90;99.90;;;;;;8365398;28;20041;-81
2022/08/16 01:16:02;;;;;;;3.78;2.78;;;12.90;99.90;;;;;;8363355;28;20040;-81
2022/08/16 01:20:07;;;;;;;3.20;2.78;;;12.90;99.90;;;;;;8364246;28;20017;-81
2022/08/16 01:24:48;;;;;;;3.85;2.63;;;13.10;99.90;;;;;;8363654;28;20405;-81
2022/08/16 01:28:49;;;;;;;4.68;2.80;;;12.90;99.90;;;;;;8354854;28;20051;-80
2022/08/16 01:32:51;;;;;;;4.13;2.90;;;13.00;99.90;;;;;;8362479;28;20036;-79
2022/08/16 01:36:58;;;;;;;3.60;2.75;;;13.20;99.90;;;;;;8363235;28;20028;-81
2022/08/16 01:41:09;;;;;;;4.63;3.15;;;13.10;99.90;;;;;;8363893;28;20009;-80
2022/08/16 01:45:09;;;;;;;5.43;3.20;;;13.00;99.90;;;;;;8361891;28;20640;-81
2022/08/16 01:49:17;;;;;;;3.13;2.70;;;13.20;99.90;;;;;;8363395;28;20031;-79
2022/08/16 01:53:19;;;;;;;3.75;2.58;;;13.70;99.90;;;;;;8357970;28;20503;-80
2022/08/16 01:57:20;;;;;;;3.33;2.75;;;13.70;99.90;;;;;;8358434;28;20024;-80
2022/08/16 02:01:21;;;;;;;4.43;3.10;;;13.70;99.90;;;;;;8362048;28;20044;-80
2022/08/16 02:05:22;;;;;;;5.18;3.28;;;13.50;99.90;;;;;;8359673;28;20441;-79
2022/08/16 02:09:24;;;;;;;4.60;3.38;;;13.30;99.90;;;;;;8361901;28;20025;-80
2022/08/16 02:13:25;;;;;;;4.75;3.03;;;13.10;99.90;;;;;;8361929;28;20072;-80
2022/08/16 02:17:26;;;;;;;4.30;3.28;;;12.80;99.90;;;;;;8360630;28;20155;-80
2022/08/16 02:21:27;;;;;;;3.15;2.80;;;12.70;99.90;;;;;;8362441;28;20027;-79
2022/08/16 02:25:27;;;;;;;3.53;3.22;;;12.70;99.90;;;;;;8361389;28;20024;-80
2022/08/16 02:29:28;;;;;;;4.82;3.70;;;12.50;99.90;;;;;;8361925;28;20022;-81
2022/08/16 02:33:28;;;;;;;3.65;2.90;;;12.50;99.90;;;;;;8362321;28;20385;-79
2022/08/16 02:37:29;;;;;;;4.25;3.55;;;12.30;99.90;;;;;;8363357;28;20117;-81
2022/08/16 02:41:30;;;;;;;3.53;3.03;;;12.10;99.90;;;;;;8363874;28;20020;-81
2022/08/16 02:45:31;;;;;;;5.72;3.30;;;12.00;99.90;;;;;;8363185;28;20025;-81
2022/08/16 02:49:31;;;;;;;4.45;3.80;;;11.90;99.90;;;;;;8362931;28;20393;-81
2022/08/16 02:53:33;;;;;;;4.22;3.60;;;11.80;99.90;;;;;;8362734;28;20667;-81
2022/08/16 02:57:34;;;;;;;3.95;2.92;;;11.80;99.90;;;;;;8362172;28;20021;-80
2022/08/16 03:01:35;;;;;;;4.05;3.35;;;12.00;99.90;;;;;;8363850;28;20024;-81
2022/08/16 03:05:35;;;;;;;5.63;3.88;;;11.90;99.90;;;;;;8363039;28;20036;-81
2022/08/16 03:09:36;;;;;;;4.43;3.40;;;12.10;99.90;;;;;;8364196;28;20025;-81
2022/08/16 03:13:38;;;;;;;4.65;3.47;;;12.00;99.90;;;;;;8369168;28;20637;-80
2022/08/16 03:17:40;;;;;;;5.03;3.90;;;11.90;99.90;;;;;;8368292;28;20025;-81
2022/08/16 03:21:40;;;;;;;6.07;3.35;;;11.80;99.90;;;;;;8368333;28;20021;-81
2022/08/16 03:25:41;;;;;;;6.75;3.78;;;11.70;99.90;;;;;;8368614;28;20032;-81
2022/08/16 03:29:42;;;;;;;5.40;4.07;;;11.70;99.90;;;;;;8370742;28;20032;-81
2022/08/16 03:33:42;;;;;;;3.72;3.08;;;11.80;99.90;;;;;;8380145;28;20492;-81
2022/08/16 03:37:44;;;;;;;5.75;3.63;;;11.90;99.90;;;;;;8365216;28;20515;-80
2022/08/16 03:41:45;;;;;;;5.22;4.00;;;12.00;99.90;;;;;;8365662;28;20150;-81
2022/08/16 03:45:45;;;;;;;4.65;3.80;;;12.20;99.90;;;;;;8364889;28;20554;-80
2022/08/16 03:49:47;;;;;;;6.10;4.00;;;12.20;99.90;;;;;;8365329;28;20492;-79
2022/08/16 03:53:47;;;;;;;5.10;3.80;;;12.00;99.90;;;;;;8366029;28;20029;-80
2022/08/16 03:57:48;;;;;;;5.15;3.65;;;11.90;99.90;;;;;;8362519;28;20036;-80
2022/08/16 04:01:49;;;;;;;4.82;3.58;;;11.90;99.90;;;;;;8363681;28;20017;-81
2022/08/16 04:05:50;;;;;;;8.38;5.32;;;11.90;99.90;;;;;;8360013;28;20029;-80
2022/08/16 04:09:50;;;;;;;5.85;4.60;;;12.00;99.90;;;;;;8359011;28;20039;-79
2022/08/16 04:13:51;;;;;;;4.28;3.55;;;12.00;99.90;;;;;;8366223;28;20036;-80
2022/08/16 04:17:53;;;;;;;4.63;3.75;;;12.10;99.90;;;;;;8392558;22;20036;-79
2022/08/16 04:21:54;;;;;;;5.38;4.20;;;12.00;99.90;;;;;;8360112;28;20013;-79
2022/08/16 04:25:54;;;;;;;5.22;4.35;;;12.00;99.90;;;;;;8359042;28;20488;-79
2022/08/16 04:29:56;;;;;;;4.88;3.70;;;12.00;99.90;;;;;;8359856;28;20041;-79
2022/08/16 04:33:58;;;;;;;5.97;3.97;;;12.10;99.90;;;;;;8361687;28;20017;-79
2022/08/16 04:37:58;;;;;;;5.93;4.40;;;11.90;99.90;;;;;;8357004;28;20025;-83
2022/08/16 04:42:00;;;;;;;5.55;4.32;;;11.90;99.90;;;;;;8350454;28;20029;-79
2022/08/16 04:46:01;;;;;;;5.93;3.85;;;11.90;99.90;;;;;;8343061;28;20037;-79
2022/08/16 04:50:09;;;;;;;8.82;5.72;;;12.00;99.90;;;;;;8360528;28;20040;-79
2022/08/16 04:54:10;;;;;;;7.93;4.80;;;12.20;99.90;;;;;;8359184;28;20021;-79
2022/08/16 04:58:11;;;;;;;6.28;5.00;;;12.40;99.90;;;;;;8358745;28;20393;-79
2022/08/16 05:02:11;;;;;;;5.63;4.47;;;12.50;99.90;;;;;;8358871;28;20045;-79
2022/08/16 05:06:12;;;;;;;5.28;4.40;;;12.60;99.90;;;;;;8358711;28;20113;-79
2022/08/16 05:10:13;;;;;;;5.05;4.43;;;12.80;99.90;;;;;;8359070;28;20378;-79
2022/08/16 05:14:14;;;;;;;5.57;3.95;;;13.00;99.90;;;;;;8358543;28;20029;-79
2022/08/16 05:18:15;;;;;;;11.43;4.15;;;13.30;99.90;;;;;;8357636;28;20025;-79
2022/08/16 05:22:16;;;;;;;6.93;5.00;;;13.50;99.90;;;;;;8358615;28;20013;-79
2022/08/16 05:26:17;;;;;;;8.52;5.80;;;13.80;99.90;;;;;;8357976;28;20085;-79
2022/08/16 05:30:17;;;;;;;8.68;5.50;;;13.80;99.90;;;;;;8355865;28;20028;-79
2022/08/16 05:34:20;;;;;;;5.70;4.20;;;14.00;99.90;;;;;;8355830;28;20380;-79
2022/08/16 05:38:26;;;;;;;6.18;4.05;;;14.10;99.90;;;;;;8357399;28;20120;-79
2022/08/16 05:42:26;;;;;;;4.57;3.50;;;14.30;99.90;;;;;;8353965;28;20045;-79
2022/08/16 05:46:27;;;;;;;7.03;3.58;;;14.60;99.90;;;;;;8357478;28;20032;-79
2022/08/16 05:50:27;;;;;;;4.10;3.42;;;14.80;99.90;;;;;;8353675;28;20029;-80
2022/08/16 05:54:28;;;;;;;6.10;3.45;;;15.10;99.90;;;;;;8357057;28;20029;-79
2022/08/16 05:58:28;;;;;;;3.58;3.08;;;15.90;99.90;;;;;;8356970;28;20021;-80
2022/08/16 06:02:31;;;;;;;5.70;3.38;;;16.90;99.90;;;;;;8355650;28;20032;-79
2022/08/16 06:06:32;;;;;;;3.55;3.20;;;17.70;99.90;;;;;;8347036;28;20025;-80
2022/08/16 06:10:32;;;;;;;3.38;3.05;;;18.70;99.90;;;;;;8357263;28;20381;-80
2022/08/16 06:14:33;;;;;;;2.70;2.50;;;19.70;99.90;;;;;;8355746;28;20032;-80
2022/08/16 06:18:34;;;;;;;3.47;2.70;;;20.70;99.90;;;;;;8347483;28;20231;-80
2022/08/16 06:22:37;;;;;;;2.78;2.28;;;21.10;99.90;;;;;;8357126;28;20497;-80
2022/08/16 06:26:38;;;;;;;6.50;2.60;;;21.30;99.90;;;;;;8356723;28;20095;-80
2022/08/16 06:30:39;;;;;;;2.55;2.35;;;21.10;99.90;;;;;;8352319;28;20036;-80
2022/08/16 06:34:42;;;;;;;3.88;2.72;;;21.10;99.90;;;;;;8366826;28;20036;-80
2022/08/16 06:38:42;;;;;;;2.83;2.53;;;21.60;99.90;;;;;;8350884;28;20044;-80
2022/08/16 06:42:43;;;;;;;2.50;2.30;;;21.90;99.90;;;;;;8356825;28;20017;-80
2022/08/16 06:46:43;;;;;;;4.28;2.65;;;22.50;99.90;;;;;;8357852;28;20402;-80
2022/08/16 06:50:46;;;;;;;2.63;2.40;;;23.30;99.90;;;;;;8361104;28;20088;-80
2022/08/16 06:54:48;;;;;;;2.75;2.42;;;23.90;99.90;;;;;;8356681;28;20049;-80
2022/08/16 06:58:49;;;;;;;4.40;2.53;;;24.10;99.90;;;;;;8361252;28;20656;-81
2022/08/16 07:02:49;;;;;;;6.53;4.38;;;24.10;99.90;;;;;;8361711;28;20103;-80
2022/08/16 07:06:50;;;;;;;4.10;3.70;;;23.60;99.90;;;;;;8363104;28;20051;-80
2022/08/16 07:10:51;;;;;;;3.92;2.80;;;23.50;99.90;;;;;;8362096;28;20032;-80
2022/08/16 07:14:52;;;;;;;3.42;2.88;;;23.50;99.90;;;;;;8361295;28;20558;-80
2022/08/16 07:18:52;;;;;;;3.08;2.65;;;23.90;99.90;;;;;;8360868;28;20025;-80
2022/08/16 07:22:54;;;;;;;4.18;3.00;;;23.90;99.90;;;;;;8360921;28;20029;-80
2022/08/16 07:26:55;;;;;;;4.20;2.95;;;24.00;99.90;;;;;;8360234;28;20025;-80
2022/08/16 07:30:56;;;;;;;4.78;3.03;;;24.10;99.90;;;;;;8360736;28;20123;-80
2022/08/16 07:34:57;;;;;;;5.85;3.65;;;24.20;99.90;;;;;;8360356;28;20048;-80
2022/08/16 07:38:57;;;;;;;2.95;2.70;;;24.40;99.90;;;;;;8360478;28;20039;-80
2022/08/16 07:42:58;;;;;;;5.28;2.95;;;24.40;99.90;;;;;;8360850;28;20381;-80
2022/08/16 07:46:59;;;;;;;3.63;2.80;;;24.70;99.90;;;;;;8361318;28;20094;-80
2022/08/16 07:50:59;;;;;;;4.88;3.10;;;25.10;99.90;;;;;;8360881;28;20029;-81
2022/08/16 07:55:00;;;;;;;4.32;2.92;;;25.50;99.90;;;;;;8355064;28;20493;-80
2022/08/16 07:59:04;;;;;;;3.75;2.97;;;25.90;99.90;;;;;;8358393;28;20068;-81
2022/08/16 08:03:05;;;;;;;3.20;2.90;;;26.40;99.90;;;;;;8360909;28;20102;-81
2022/08/16 08:07:05;;;;;;;3.55;2.83;;;26.20;99.90;;;;;;8358488;28;20044;-80
2022/08/16 08:11:06;;;;;;;4.88;3.50;;;26.50;99.90;;;;;;8359677;28;20043;-81
2022/08/16 08:15:09;;;;;;;3.63;3.33;;;26.80;99.90;;;;;;8355744;28;20031;-80
2022/08/16 08:19:11;;;;;;;5.35;3.53;;;26.80;99.90;;;;;;8358658;28;20032;-81
2022/08/16 08:23:13;;;;;;;3.67;3.25;;;26.70;99.90;;;;;;8356016;28;20045;-81
2022/08/16 08:27:13;;;;;;;4.82;3.30;;;26.70;99.90;;;;;;8356130;28;20041;-81
2022/08/16 08:31:14;;;;;;;4.78;3.13;;;26.50;99.90;;;;;;8359849;28;20090;-81
2022/08/16 08:35:14;;;;;;;4.85;3.22;;;27.10;99.90;;;;;;8357260;28;20107;-81
2022/08/16 08:39:15;;;;;;;3.67;3.05;;;27.30;99.90;;;;;;8358933;28;20017;-80
2022/08/16 08:43:16;;;;;;;3.90;3.00;;;27.30;99.90;;;;;;8358626;28;20028;-81
2022/08/16 08:47:17;;;;;;;5.40;3.70;;;27.40;99.70;;;;;;8357124;28;20512;-80
2022/08/16 08:51:18;;;;;;;5.40;3.40;;;27.40;99.90;;;;;;8356526;28;20044;-79
2022/08/16 08:55:21;;;;;;;5.90;3.33;;;27.60;98.40;;;;;;8356329;28;20536;-78
2022/08/16 08:59:22;;;;;;;4.10;3.38;;;27.20;97.50;;;;;;8359356;28;20021;-78
2022/08/16 09:03:23;;;;;;;7.00;3.72;;;25.70;99.90;;;;;;8359477;28;20086;-79
2022/08/16 09:07:23;;;;;;;7.57;3.25;;;25.70;99.90;;;;;;8356853;28;20489;-79
2022/08/16 09:11:24;;;;;;;4.55;3.42;;;25.70;99.90;;;;;;8356899;28;20025;-79
2022/08/16 09:15:26;;;;;;;5.72;3.38;;;25.80;99.90;;;;;;8356784;28;20032;-79
2022/08/16 09:19:26;;;;;;;5.47;3.38;;;26.50;99.90;;;;;;8357776;28;20031;-79
2022/08/16 09:23:30;;;;;;;5.05;3.05;;;27.30;99.90;;;;;;8356876;28;20021;-79
2022/08/16 09:27:30;;;;;;;3.70;2.97;;;27.70;97.90;;;;;;8355641;28;20053;-78
2022/08/16 09:31:31;;;;;;;4.43;3.00;;;27.60;98.50;;;;;;8358693;28;20025;-80
2022/08/16 09:35:32;;;;;;;3.50;3.20;;;27.10;98.40;;;;;;8354958;28;20423;-81
2022/08/16 09:39:33;;;;;;;5.40;3.00;;;27.10;99.90;;;;;;8357892;28;20033;-82
2022/08/16 09:43:34;;;;;;;5.10;3.88;;;27.80;97.60;;;;;;8359036;28;20028;-81
2022/08/16 09:47:39;;;;;;;3.80;3.10;;;27.50;98.70;;;;;;8357608;28;20489;-79
2022/08/16 09:51:40;;;;;;;4.78;3.10;;;27.70;99.50;;;;;;8359918;28;20029;-81
2022/08/16 09:55:42;;;;;;;5.85;3.30;;;28.10;98.00;;;;;;8353283;28;20032;-82
2022/08/16 09:59:43;;;;;;;4.25;2.90;;;28.50;94.60;;;;;;8361053;28;20389;-80
2022/08/16 10:03:43;;;;;;;3.55;3.22;;;28.50;95.10;;;;;;8359762;28;20024;-80
2022/08/16 10:07:46;;;;;;;7.82;3.10;;;28.40;94.10;;;;;;8360340;28;20155;-81
2022/08/16 10:16:07;;;;;;;3.00;2.50;;;27.80;96.80;;;;;;8355463;28;20467;-80
2022/08/16 10:20:10;;;;;;;3.55;3.10;;;28.30;91.10;;;;;;8358786;28;20491;-80
2022/08/16 10:24:10;;;;;;;4.38;3.10;;;27.20;93.30;;;;;;8360630;28;20009;-80
2022/08/16 10:28:12;;;;;;;6.03;3.28;;;27.00;94.00;;;;;;8358743;28;20025;-81
2022/08/16 10:32:12;;;;;;;3.42;2.88;;;27.30;96.40;;;;;;8359362;28;20401;-80
2022/08/16 10:36:13;;;;;;;3.78;2.72;;;28.60;95.40;;;;;;8358477;28;20029;-81
2022/08/16 10:40:14;;;;;;;4.50;2.75;;;29.80;93.40;;;;;;8358842;28;20048;-81
2022/08/16 10:44:14;;;;;;;4.68;2.85;;;31.20;88.80;;;;;;8359668;28;20021;-79
2022/08/16 10:48:15;;;;;;;4.47;2.72;;;31.40;78.60;;;;;;8353864;28;20029;-81
2022/08/16 10:52:15;;;;;;;4.80;2.70;;;29.80;84.20;;;;;;8357176;28;20029;-80
2022/08/16 10:56:16;;;;;;;3.95;2.75;;;29.30;80.70;;;;;;8345857;28;20021;-80
2022/08/16 11:00:17;;;;;;;3.28;2.95;;;29.30;91.80;;;;;;8358146;28;20029;-80
2022/08/16 11:33:51;;;;;;;4.22;2.50;;;31.40;73.40;;;;;;8376975;27;20453;-80
2022/08/16 11:38:07;;;;;;;2.47;2.28;;;32.20;67.70;;;;;;8386610;28;20044;-80
2022/08/16 11:42:08;;;;;;;3.80;2.60;;;33.10;63.70;;;;;;8383177;28;20453;-81
2022/08/16 11:46:12;;;;;;;4.38;2.38;;;32.90;65.60;;;;;;8357365;28;20022;-80
2022/08/16 11:50:13;;;;;;;3.33;2.35;;;33.10;65.40;;;;;;8377754;28;20016;-82
2022/08/16 11:54:14;;;;;;;2.50;2.08;;;34.20;57.50;;;;;;8376725;28;20029;-81
2022/08/16 11:58:15;;;;;;;2.60;2.30;;;34.70;58.70;;;;;;8381036;28;20139;-81
2022/08/16 12:02:15;;;;;;;3.55;2.33;;;33.90;56.70;;;;;;8379013;28;20028;-81
2022/08/16 12:06:18;;;;;;;4.15;2.83;;;34.70;55.70;;;;;;8399006;28;20028;-81
2022/08/16 12:10:19;;;;;;;2.83;2.42;;;35.80;53.80;;;;;;8380238;28;20112;-81
2022/08/16 12:14:20;;;;;;;2.25;2.00;;;35.30;55.20;;;;;;8380177;28;20098;-81
2022/08/16 12:18:21;;;;;;;3.95;2.47;;;34.60;54.30;;;;;;8390141;28;20506;-81
2022/08/16 12:22:23;;;;;;;2.47;2.20;;;34.00;57.30;;;;;;8389646;28;20036;-81
2022/08/16 12:26:24;;;;;;;2.95;2.47;;;34.40;53.80;;;;;;8385000;28;20025;-85
2022/08/16 12:30:28;;;;;;;5.47;2.30;;;34.60;53.50;;;;;;8375058;28;20032;-82
2022/08/16 12:34:29;;;;;;;4.20;2.90;;;34.00;56.60;;;;;;8340366;28;20033;-82
2022/08/16 12:38:30;;;;;;;2.78;2.22;;;34.70;57.00;;;;;;8363474;28;20028;-80
2022/08/16 12:42:31;;;;;;;4.80;2.30;;;35.30;53.70;;;;;;8363594;28;20028;-82
2022/08/16 12:46:32;;;;;;;2.30;2.10;;;35.90;53.10;;;;;;8349439;28;20490;-82
2022/08/16 12:50:33;;;;;;;4.22;2.30;;;36.60;48.10;;;;;;8367962;28;20028;-82
2022/08/16 12:54:33;;;;;;;3.40;2.10;;;37.80;49.60;;;;;;8364413;28;20037;-81
2022/08/16 12:58:34;;;;;;;2.60;2.20;;;37.50;45.20;;;;;;8370727;28;20457;-82
2022/08/16 13:02:35;;;;;;;4.82;2.08;;;36.50;47.00;;;;;;8350203;28;20025;-81
2022/08/16 13:06:36;;;;;;;2.65;2.45;;;37.60;46.70;;;;;;8352348;28;20670;-82
2022/08/16 13:10:37;;;;;;;4.57;2.15;;;38.20;46.00;;;;;;8371350;28;20087;-82
2022/08/16 13:14:40;;;;;;;3.13;2.40;;;38.60;44.90;;;;;;8356197;28;20025;-81
2022/08/16 13:18:41;;;;;;;6.38;2.03;;;37.80;44.40;;;;;;8377755;28;20028;-82
2022/08/16 13:22:53;;;;;;;4.40;2.28;;;38.40;45.20;;;;;;8372919;28;20057;-81
2022/08/16 13:26:54;;;;;;;3.92;2.30;;;36.80;47.10;;;;;;8360910;28;20047;-82
2022/08/16 13:30:56;;;;;;;3.22;2.25;;;38.30;45.20;;;;;;8356316;28;20036;-81
2022/08/16 13:34:57;;;;;;;2.25;2.00;;;39.30;44.80;;;;;;8371890;28;20016;-81
2022/08/16 13:38:58;;;;;;;3.10;2.35;;;40.50;41.60;;;;;;8343035;28;20071;-82
2022/08/16 13:42:59;;;;;;;3.20;2.17;;;39.90;40.90;;;;;;8357893;28;20033;-81
2022/08/16 13:47:00;;;;;;;2.95;2.22;;;38.70;41.10;;;;;;8364544;28;20116;-82
2022/08/16 13:51:01;;;;;;;3.92;2.50;;;38.90;42.20;;;;;;8369870;28;20029;-83
2022/08/16 13:55:03;;;;;;;2.47;2.15;;;39.10;42.00;;;;;;8346754;28;20026;-83
2022/08/16 13:59:12;;;;;;;3.35;2.28;;;39.60;42.70;;;;;;8355074;28;20175;-82
2022/08/16 14:03:13;;;;;;;2.83;2.25;;;40.50;41.00;;;;;;8360329;28;20555;-82
2022/08/16 14:07:14;;;;;;;2.92;2.10;;;39.50;42.00;;;;;;8369819;28;20028;-83
2022/08/16 14:11:15;;;;;;;4.70;2.15;;;38.50;43.70;;;;;;8374581;28;20508;-82
2022/08/16 14:15:17;;;;;;;2.60;2.35;;;38.00;42.50;;;;;;8351801;28;20025;-82
2022/08/16 14:19:18;;;;;;;4.97;2.45;;;38.70;40.40;;;;;;8360926;28;20019;-82
2022/08/16 14:23:18;;;;;;;5.07;2.10;;;38.40;40.80;;;;;;8356367;28;20024;-82
2022/08/16 14:27:21;;;;;;;2.33;2.13;;;39.10;40.40;;;;;;8371071;28;20036;-83
2022/08/16 14:31:22;;;;;;;2.58;2.35;;;39.80;39.90;;;;;;8359587;28;20029;-81
2022/08/16 14:35:26;;;;;;;2.70;2.50;;;39.90;40.40;;;;;;8357994;28;20474;-82
2022/08/16 14:39:27;;;;;;;2.85;2.50;;;40.10;40.80;;;;;;8371216;28;20021;-80
2022/08/16 14:43:27;;;;;;;4.03;2.53;;;38.10;41.80;;;;;;8361106;28;20029;-81
2022/08/16 14:47:28;;;;;;;7.15;2.72;;;36.10;44.90;;;;;;8360614;28;20041;-81
2022/08/16 14:51:29;;;;;;;2.83;2.08;;;37.00;42.90;;;;;;8357889;28;20573;-81
2022/08/16 14:55:31;;;;;;;3.53;2.85;;;36.20;44.50;;;;;;8359348;28;20048;-81
2022/08/16 14:59:31;;;;;;;2.70;2.38;;;35.20;44.40;;;;;;8361958;28;20409;-82
2022/08/16 15:03:32;;;;;;;2.88;2.30;;;34.90;46.10;;;;;;8366089;28;20031;-80
2022/08/16 15:07:33;;;;;;;3.28;2.38;;;34.30;48.10;;;;;;8365098;28;20048;-82
2022/08/16 15:11:33;;;;;;;5.10;2.28;;;35.90;44.60;;;;;;8349613;28;20018;-82
2022/08/16 15:15:34;;;;;;;2.95;2.50;;;38.40;41.90;;;;;;8343536;28;20029;-81
2022/08/16 15:19:35;;;;;;;2.88;2.15;;;38.60;41.70;;;;;;8353621;28;20028;-83
2022/08/16 15:23:36;;;;;;;2.72;2.20;;;37.70;42.70;;;;;;8353907;28;20470;-82
2022/08/16 15:27:40;;;;;;;4.65;2.72;;;36.40;43.30;;;;;;8353059;28;20028;-82
2022/08/16 15:31:43;;;;;;;3.15;2.20;;;35.90;45.10;;;;;;8351950;28;20033;-82
2022/08/16 15:35:45;;;;;;;3.97;2.25;;;36.60;44.70;;;;;;8360634;28;20036;-82
2022/08/16 15:39:46;;;;;;;5.60;2.55;;;38.10;42.50;;;;;;8365044;28;20029;-82
2022/08/16 15:43:46;;;;;;;3.80;2.53;;;39.60;39.50;;;;;;8380567;28;20025;-82
2022/08/16 15:47:47;;;;;;;3.50;2.42;;;39.40;39.30;;;;;;8339137;28;20028;-83
2022/08/16 15:51:47;;;;;;;3.30;2.47;;;39.60;39.90;;;;;;8360315;28;20025;-82
2022/08/16 15:55:50;;;;;;;6.00;2.72;;;36.70;42.10;;;;;;8349403;28;20036;-81
2022/08/16 15:59:52;;;;;;;4.60;2.65;;;33.30;47.40;;;;;;8375984;28;20021;-80
2022/08/16 16:03:53;;;;;;;3.40;2.70;;;31.30;50.40;;;;;;8359415;28;20114;-82
2022/08/16 16:07:53;;;;;;;3.65;2.60;;;30.10;52.00;;;;;;8365770;28;20100;-80
2022/08/16 16:11:54;;;;;;;5.85;2.75;;;29.60;53.00;;;;;;8361734;28;20024;-81
2022/08/16 16:15:57;;;;;;;3.40;2.65;;;29.30;54.80;;;;;;8353226;28;20030;-82
2022/08/16 16:19:57;;;;;;;2.72;2.20;;;29.10;53.40;;;;;;8378740;28;20025;-80
2022/08/16 16:23:58;;;;;;;3.40;2.88;;;28.70;54.60;;;;;;8380862;28;20146;-82
2022/08/16 16:27:59;;;;;;;3.78;2.30;;;28.50;55.10;;;;;;8368598;28;20040;-82
2022/08/16 16:32:03;;;;;;;5.88;2.60;;;28.40;55.40;;;;;;8360590;28;20037;-80
2022/08/16 16:36:05;;;;;;;2.83;2.60;;;28.10;58.20;;;;;;8384934;28;20166;-81
2022/08/16 16:40:08;;;;;;;4.85;2.83;;;28.20;60.50;;;;;;8356017;28;20422;-81
2022/08/16 16:44:09;;;;;;;2.85;2.58;;;27.80;59.50;;;;;;8370743;28;20422;-81
2022/08/16 16:48:10;;;;;;;3.95;2.60;;;27.40;64.70;;;;;;8372939;28;20025;-79
2022/08/16 16:52:14;;;;;;;3.17;2.55;;;27.00;61.10;;;;;;8357987;28;20368;-81
2022/08/16 16:56:16;;;;;;;5.22;2.50;;;26.90;65.40;;;;;;8379879;28;20024;-81
2022/08/16 17:00:17;;;;;;;4.53;2.83;;;26.80;65.60;;;;;;8346814;28;20025;-80
2022/08/16 17:04:22;;;;;;;3.85;2.97;;;26.70;65.60;;;;;;8350992;28;20196;-81
2022/08/16 17:08:23;;;;;;;4.32;2.58;;;26.40;65.70;;;;;;8346020;28;20021;-81
2022/08/16 17:12:25;;;;;;;2.90;2.63;;;26.00;67.90;;;;;;8356208;28;20729;-81
2022/08/16 17:16:26;;;;;;;4.25;2.28;;;25.90;69.90;;;;;;8362391;28;20021;-81
2022/08/16 17:20:27;;;;;;;3.75;2.60;;;25.40;67.80;;;;;;8346218;28;20617;-82
2022/08/16 17:24:28;;;;;;;3.28;2.70;;;24.90;72.60;;;;;;8350464;28;20025;-81
2022/08/16 17:28:28;;;;;;;3.63;2.85;;;24.20;74.10;;;;;;8345387;28;20083;-82
2022/08/16 17:32:29;;;;;;;4.20;2.88;;;23.90;74.60;;;;;;8360038;28;21139;-80
2022/08/16 17:36:29;;;;;;;5.93;2.75;;;23.70;75.30;;;;;;8354385;28;20510;-81
2022/08/16 17:40:33;;;;;;;4.80;2.80;;;23.50;75.60;;;;;;8349399;28;20486;-82
2022/08/16 17:44:33;;;;;;;5.18;2.67;;;23.40;79.90;;;;;;8364230;28;20017;-82
2022/08/16 17:48:35;;;;;;;3.80;2.80;;;23.30;79.50;;;;;;8362661;28;20031;-81
2022/08/16 17:52:35;;;;;;;2.65;2.40;;;23.40;79.30;;;;;;8351721;28;20602;-81
2022/08/16 17:56:36;;;;;;;5.53;2.75;;;23.30;81.30;;;;;;8354562;28;20018;-82
2022/08/16 18:00:39;;;;;;;5.22;2.85;;;23.10;88.20;;;;;;8343992;28;20033;-81
2022/08/16 18:04:39;;;;;;;3.20;2.88;;;22.80;90.00;;;;;;8363756;28;20029;-81
2022/08/16 18:08:40;;;;;;;4.07;3.00;;;22.70;88.10;;;;;;8372966;28;20032;-82
2022/08/16 18:12:41;;;;;;;4.10;2.97;;;22.70;90.40;;;;;;8350022;28;20092;-82
2022/08/16 18:16:42;;;;;;;5.88;3.25;;;22.60;91.30;;;;;;8370307;28;20076;-79
2022/08/16 18:25:05;;;;;;;6.95;4.45;;;22.50;92.00;;;;;;8355901;28;20032;-81
2022/08/16 18:29:06;;;;;;;4.78;4.03;;;22.60;91.90;;;;;;8372215;28;20029;-80
2022/08/16 18:33:07;;;;;;;7.80;4.10;;;22.50;92.50;;;;;;8383315;28;20029;-81
2022/08/16 18:37:07;;;;;;;8.48;4.60;;;22.10;94.00;;;;;;8376921;28;20071;-81
2022/08/16 18:41:08;;;;;;;13.35;4.40;;;21.70;96.10;;;;;;8382603;28;20526;-80
2022/08/16 18:45:13;;;;;;;8.23;4.90;;;21.60;97.00;;;;;;8377600;28;20043;-81
2022/08/16 18:49:14;;;;;;;5.38;4.15;;;21.30;98.80;;;;;;8385743;28;20124;-84
2022/08/16 18:53:18;;;;;;;8.68;4.18;;;21.00;99.90;;;;;;8350956;28;20517;-84
2022/08/16 18:57:18;;;;;;;6.25;4.40;;;20.40;99.90;;;;;;8340561;28;20032;-84
2022/08/16 19:01:19;;;;;;;6.90;4.20;;;20.10;99.90;;;;;;8373464;28;20040;-84
2022/08/16 19:05:23;;;;;;;6.65;4.50;;;19.90;99.90;;;;;;8357225;28;20104;-84
2022/08/16 19:09:23;;;;;;;5.25;4.43;;;20.00;99.90;;;;;;8343724;28;20025;-83
2022/08/16 19:13:26;;;;;;;6.70;4.55;;;20.00;99.90;;;;;;8365227;28;20059;-84
2022/08/16 19:17:27;;;;;;;6.40;4.13;;;19.90;99.90;;;;;;8358199;28;20098;-84
2022/08/16 19:21:28;;;;;;;6.15;4.47;;;19.80;99.90;;;;;;8362113;28;20021;-84
2022/08/16 19:25:32;;;;;;;7.55;5.03;;;19.70;99.90;;;;;;8353272;28;20434;-82
2022/08/16 19:29:33;;;;;;;6.28;4.60;;;19.80;99.90;;;;;;8346319;28;20025;-81
2022/08/16 19:33:33;;;;;;;10.05;5.35;;;19.60;99.90;;;;;;8355894;28;20386;-81
2022/08/16 19:37:34;;;;;;;6.20;4.28;;;19.50;99.90;;;;;;8367824;28;20033;-81
2022/08/16 19:41:42;;;;;;;5.70;3.90;;;19.40;99.90;;;;;;8376164;28;20029;-81
2022/08/16 19:45:42;;;;;;;5.00;4.05;;;19.20;99.90;;;;;;8363773;28;20482;-80
2022/08/16 19:49:43;;;;;;;5.43;4.50;;;19.30;99.90;;;;;;8367900;28;20025;-81
2022/08/16 19:53:43;;;;;;;8.30;4.40;;;18.90;99.90;;;;;;8371197;28;20044;-80
2022/08/16 19:57:46;;;;;;;6.07;4.03;;;18.80;99.90;;;;;;8361925;28;20066;-81
2022/08/16 20:01:49;;;;;;;5.38;4.18;;;18.40;99.90;;;;;;8380746;28;20087;-81
2022/08/16 20:05:51;;;;;;;7.20;4.38;;;18.20;99.90;;;;;;8372600;28;20434;-79
2022/08/16 20:09:52;;;;;;;5.35;4.07;;;18.10;99.90;;;;;;8368662;28;20112;-81
2022/08/16 20:13:53;;;;;;;6.70;4.30;;;18.10;99.90;;;;;;8348348;28;20513;-80
2022/08/16 20:17:55;;;;;;;7.82;4.88;;;18.00;99.90;;;;;;8355711;28;20021;-81
2022/08/16 20:21:58;;;;;;;4.43;4.03;;;17.90;99.90;;;;;;8372054;28;20033;-79
2022/08/16 20:25:58;;;;;;;8.15;4.32;;;17.80;99.90;;;;;;8340784;28;20483;-80
2022/08/16 20:29:59;;;;;;;4.50;3.90;;;17.70;99.90;;;;;;8378898;28;20036;-80
2022/08/16 20:34:00;;;;;;;5.22;4.03;;;17.50;99.90;;;;;;8347057;28;20458;-81
2022/08/16 20:38:02;;;;;;;7.13;5.00;;;17.40;99.90;;;;;;8379876;28;20025;-80
2022/08/16 20:42:03;;;;;;;5.10;4.25;;;17.30;99.90;;;;;;8355695;28;20027;-79
2022/08/16 20:46:04;;;;;;;5.40;4.38;;;17.40;99.90;;;;;;8356273;28;20040;-80
2022/08/16 20:50:05;;;;;;;6.22;4.97;;;17.30;99.90;;;;;;8338707;28;20119;-80
2022/08/16 20:54:05;;;;;;;6.82;5.00;;;17.30;99.90;;;;;;8346039;28;20025;-80
2022/08/16 20:58:06;;;;;;;6.85;4.95;;;17.20;99.90;;;;;;8347912;28;20380;-80
2022/08/16 21:02:11;;;;;;;5.47;4.88;;;16.90;99.90;;;;;;8371903;28;20119;-80
2022/08/16 21:06:12;;;;;;;6.07;4.35;;;16.80;99.90;;;;;;8338979;28;20379;-81
2022/08/16 21:10:12;;;;;;;6.55;4.75;;;16.90;99.90;;;;;;8370715;28;20025;-79
2022/08/16 21:14:13;;;;;;;6.53;4.78;;;16.60;99.90;;;;;;8371200;28;20387;-81
2022/08/16 21:18:14;;;;;;;5.97;4.93;;;16.40;99.90;;;;;;8355043;28;20028;-79
2022/08/16 21:22:18;;;;;;;7.13;4.82;;;16.20;99.90;;;;;;8375302;28;20029;-80
2022/08/16 21:26:19;;;;;;;5.68;5.03;;;16.20;99.90;;;;;;8363390;28;20025;-80
2022/08/16 21:30:20;;;;;;;8.27;5.70;;;16.20;99.90;;;;;;8353959;28;20040;-79
2022/08/16 21:34:20;;;;;;;7.15;5.35;;;16.10;99.90;;;;;;8363606;28;20021;-81